sensor_id;sensor_type;location;lat;lon;timestamp;P1;durP1;ratioP1;P2;durP2;ratioP2
9467;SDS011;4772;52.382;9.752;2023-02-28T00:00:04;11.93;;;4.40;;
9467;SDS011;4772;52.382;9.752;2023-02-28T00:02:35;7.47;;;4.47;;
9467;SDS011;4772;52.382;9.752;2023-02-28T00:05:01;8.60;;;4.90;;
9467;SDS011;4772;52.382;9.752;2023-02-28T00:07:28;7.80;;;4.30;;
9467;SDS011;4772;52.382;9.752;2023-02-28T00:09:54;6.80;;;4.10;;
9467;SDS011;4772;52.382;9.752;2023-02-28T00:12:20;6.17;;;4.50;;
9467;SDS011;4772;52.382;9.752;2023-02-28T00:14:50;9.80;;;4.63;;
9467;SDS011;4772;52.382;9.752;2023-02-28T00:17:16;9.67;;;4.20;;
9467;SDS011;4772;52.382;9.752;2023-02-28T00:19:49;6.43;;;4.17;;
9467;SDS011;4772;52.382;9.752;2023-02-28T00:22:16;8.80;;;4.90;;
9467;SDS011;4772;52.382;9.752;2023-02-28T00:24:42;9.50;;;4.67;;
9467;SDS011;4772;52.382;9.752;2023-02-28T00:27:08;5.47;;;4.20;;
9467;SDS011;4772;52.382;9.752;2023-02-28T00:29:34;6.30;;;4.30;;
9467;SDS011;4772;52.382;9.752;2023-02-28T00:32:00;5.47;;;4.40;;
9467;SDS011;4772;52.382;9.752;2023-02-28T00:34:26;7.93;;;4.40;;
9467;SDS011;4772;52.382;9.752;2023-02-28T00:36:52;6.70;;;4.40;;
9467;SDS011;4772;52.382;9.752;2023-02-28T00:39:18;7.50;;;4.50;;
9467;SDS011;4772;52.382;9.752;2023-02-28T00:41:44;5.20;;;4.30;;
9467;SDS011;4772;52.382;9.752;2023-02-28T00:44:10;7.20;;;4.40;;
9467;SDS011;4772;52.382;9.752;2023-02-28T00:46:36;7.33;;;4.67;;
9467;SDS011;4772;52.382;9.752;2023-02-28T00:49:02;6.37;;;4.23;;
9467;SDS011;4772;52.382;9.752;2023-02-28T00:51:28;5.20;;;4.70;;
9467;SDS011;4772;52.382;9.752;2023-02-28T00:53:54;8.40;;;4.63;;
9467;SDS011;4772;52.382;9.752;2023-02-28T00:56:20;6.80;;;4.60;;
9467;SDS011;4772;52.382;9.752;2023-02-28T00:58:46;5.93;;;4.47;;
9467;SDS011;4772;52.382;9.752;2023-02-28T01:01:13;7.80;;;4.90;;
9467;SDS011;4772;52.382;9.752;2023-02-28T01:03:39;8.73;;;4.97;;
9467;SDS011;4772;52.382;9.752;2023-02-28T01:06:05;7.83;;;4.50;;
9467;SDS011;4772;52.382;9.752;2023-02-28T01:08:31;7.47;;;4.80;;
9467;SDS011;4772;52.382;9.752;2023-02-28T01:10:57;7.47;;;5.00;;
9467;SDS011;4772;52.382;9.752;2023-02-28T01:13:23;7.40;;;4.50;;
9467;SDS011;4772;52.382;9.752;2023-02-28T01:15:50;9.77;;;5.10;;
9467;SDS011;4772;52.382;9.752;2023-02-28T01:18:17;7.57;;;4.70;;
9467;SDS011;4772;52.382;9.752;2023-02-28T01:20:43;7.50;;;4.80;;
9467;SDS011;4772;52.382;9.752;2023-02-28T01:23:09;7.20;;;4.63;;
9467;SDS011;4772;52.382;9.752;2023-02-28T01:25:35;7.87;;;4.87;;
9467;SDS011;4772;52.382;9.752;2023-02-28T01:28:02;10.63;;;4.73;;
9467;SDS011;4772;52.382;9.752;2023-02-28T01:30:28;7.33;;;4.23;;
9467;SDS011;4772;52.382;9.752;2023-02-28T01:32:54;6.97;;;4.43;;
9467;SDS011;4772;52.382;9.752;2023-02-28T01:35:20;9.07;;;4.80;;
9467;SDS011;4772;52.382;9.752;2023-02-28T01:37:46;9.07;;;5.17;;
9467;SDS011;4772;52.382;9.752;2023-02-28T01:40:12;7.63;;;4.73;;
9467;SDS011;4772;52.382;9.752;2023-02-28T01:42:38;11.70;;;5.20;;
9467;SDS011;4772;52.382;9.752;2023-02-28T01:45:18;9.37;;;4.87;;
9467;SDS011;4772;52.382;9.752;2023-02-28T01:47:46;6.27;;;5.00;;
9467;SDS011;4772;52.382;9.752;2023-02-28T01:50:15;8.10;;;5.07;;
9467;SDS011;4772;52.382;9.752;2023-02-28T01:52:42;8.97;;;5.40;;
9467;SDS011;4772;52.382;9.752;2023-02-28T01:55:08;7.23;;;5.00;;
9467;SDS011;4772;52.382;9.752;2023-02-28T01:57:38;8.03;;;5.20;;
9467;SDS011;4772;52.382;9.752;2023-02-28T02:00:10;11.20;;;4.80;;
9467;SDS011;4772;52.382;9.752;2023-02-28T02:02:38;5.57;;;4.87;;
9467;SDS011;4772;52.382;9.752;2023-02-28T02:05:12;5.73;;;4.90;;
9467;SDS011;4772;52.382;9.752;2023-02-28T02:07:40;7.33;;;4.87;;
9467;SDS011;4772;52.382;9.752;2023-02-28T02:12:41;10.53;;;4.60;;
9467;SDS011;4772;52.382;9.752;2023-02-28T02:17:48;7.03;;;4.47;;
9467;SDS011;4772;52.382;9.752;2023-02-28T02:25:39;5.77;;;4.73;;
9467;SDS011;4772;52.382;9.752;2023-02-28T02:28:13;9.63;;;5.00;;
9467;SDS011;4772;52.382;9.752;2023-02-28T02:41:04;7.50;;;5.03;;
9467;SDS011;4772;52.382;9.752;2023-02-28T02:46:06;9.47;;;6.43;;
9467;SDS011;4772;52.382;9.752;2023-02-28T02:48:34;10.17;;;6.10;;
9467;SDS011;4772;52.382;9.752;2023-02-28T02:51:03;13.53;;;6.60;;
9467;SDS011;4772;52.382;9.752;2023-02-28T02:53:37;10.83;;;5.93;;
9467;SDS011;4772;52.382;9.752;2023-02-28T02:56:06;9.30;;;5.80;;
9467;SDS011;4772;52.382;9.752;2023-02-28T02:58:34;9.97;;;6.07;;
9467;SDS011;4772;52.382;9.752;2023-02-28T03:01:07;10.27;;;6.33;;
9467;SDS011;4772;52.382;9.752;2023-02-28T03:03:34;9.57;;;6.10;;
9467;SDS011;4772;52.382;9.752;2023-02-28T03:06:01;10.07;;;5.90;;
9467;SDS011;4772;52.382;9.752;2023-02-28T03:08:28;11.23;;;6.23;;
9467;SDS011;4772;52.382;9.752;2023-02-28T03:11:02;8.73;;;6.10;;
9467;SDS011;4772;52.382;9.752;2023-02-28T03:13:36;10.77;;;6.60;;
9467;SDS011;4772;52.382;9.752;2023-02-28T03:21:24;7.47;;;5.73;;
9467;SDS011;4772;52.382;9.752;2023-02-28T03:23:56;10.63;;;5.60;;
9467;SDS011;4772;52.382;9.752;2023-02-28T03:26:24;10.77;;;6.50;;
9467;SDS011;4772;52.382;9.752;2023-02-28T03:31:39;8.30;;;6.03;;
9467;SDS011;4772;52.382;9.752;2023-02-28T03:34:10;10.77;;;6.57;;
9467;SDS011;4772;52.382;9.752;2023-02-28T03:36:38;7.97;;;6.00;;
9467;SDS011;4772;52.382;9.752;2023-02-28T03:39:08;9.77;;;6.40;;
9467;SDS011;4772;52.382;9.752;2023-02-28T03:41:36;9.47;;;5.97;;
9467;SDS011;4772;52.382;9.752;2023-02-28T03:44:05;11.43;;;6.20;;
9467;SDS011;4772;52.382;9.752;2023-02-28T03:46:34;9.27;;;5.70;;
9467;SDS011;4772;52.382;9.752;2023-02-28T03:49:02;10.33;;;6.10;;
9467;SDS011;4772;52.382;9.752;2023-02-28T03:51:29;8.97;;;5.73;;
9467;SDS011;4772;52.382;9.752;2023-02-28T03:53:58;9.53;;;5.93;;
9467;SDS011;4772;52.382;9.752;2023-02-28T03:56:27;9.60;;;5.87;;
9467;SDS011;4772;52.382;9.752;2023-02-28T04:01:42;8.90;;;6.37;;
9467;SDS011;4772;52.382;9.752;2023-02-28T04:04:09;7.93;;;5.63;;
9467;SDS011;4772;52.382;9.752;2023-02-28T04:06:35;7.03;;;5.73;;
9467;SDS011;4772;52.382;9.752;2023-02-28T04:09:02;10.93;;;5.80;;
9467;SDS011;4772;52.382;9.752;2023-02-28T04:11:39;9.30;;;5.83;;
9467;SDS011;4772;52.382;9.752;2023-02-28T04:14:06;9.47;;;5.97;;
9467;SDS011;4772;52.382;9.752;2023-02-28T04:16:33;9.63;;;6.30;;
9467;SDS011;4772;52.382;9.752;2023-02-28T04:18:59;7.40;;;5.83;;
9467;SDS011;4772;52.382;9.752;2023-02-28T04:21:34;11.00;;;6.10;;
9467;SDS011;4772;52.382;9.752;2023-02-28T04:24:01;7.33;;;5.70;;
9467;SDS011;4772;52.382;9.752;2023-02-28T04:26:28;8.37;;;5.70;;
9467;SDS011;4772;52.382;9.752;2023-02-28T04:28:55;9.10;;;6.10;;
9467;SDS011;4772;52.382;9.752;2023-02-28T04:31:21;8.30;;;5.93;;
9467;SDS011;4772;52.382;9.752;2023-02-28T04:33:47;8.27;;;5.53;;
9467;SDS011;4772;52.382;9.752;2023-02-28T04:36:13;9.77;;;5.73;;
9467;SDS011;4772;52.382;9.752;2023-02-28T04:38:39;7.53;;;5.77;;
9467;SDS011;4772;52.382;9.752;2023-02-28T04:41:06;7.50;;;5.57;;
9467;SDS011;4772;52.382;9.752;2023-02-28T04:43:32;11.20;;;6.00;;
9467;SDS011;4772;52.382;9.752;2023-02-28T04:45:59;8.00;;;5.90;;
9467;SDS011;4772;52.382;9.752;2023-02-28T04:48:29;8.40;;;6.07;;
9467;SDS011;4772;52.382;9.752;2023-02-28T04:50:59;7.87;;;5.77;;
9467;SDS011;4772;52.382;9.752;2023-02-28T04:53:26;9.60;;;6.77;;
9467;SDS011;4772;52.382;9.752;2023-02-28T04:55:53;9.17;;;5.90;;
9467;SDS011;4772;52.382;9.752;2023-02-28T04:58:19;8.67;;;5.53;;
9467;SDS011;4772;52.382;9.752;2023-02-28T05:00:48;7.43;;;5.53;;
9467;SDS011;4772;52.382;9.752;2023-02-28T05:03:13;8.13;;;6.10;;
9467;SDS011;4772;52.382;9.752;2023-02-28T05:05:39;11.03;;;5.73;;
9467;SDS011;4772;52.382;9.752;2023-02-28T05:08:05;9.53;;;5.70;;
9467;SDS011;4772;52.382;9.752;2023-02-28T05:10:31;9.17;;;5.70;;
9467;SDS011;4772;52.382;9.752;2023-02-28T05:12:58;7.30;;;5.87;;
9467;SDS011;4772;52.382;9.752;2023-02-28T05:15:24;9.03;;;5.57;;
9467;SDS011;4772;52.382;9.752;2023-02-28T05:17:50;7.47;;;6.07;;
9467;SDS011;4772;52.382;9.752;2023-02-28T05:20:16;9.43;;;5.80;;
9467;SDS011;4772;52.382;9.752;2023-02-28T05:22:42;8.33;;;5.67;;
9467;SDS011;4772;52.382;9.752;2023-02-28T05:25:10;9.33;;;6.50;;
9467;SDS011;4772;52.382;9.752;2023-02-28T05:27:38;8.17;;;5.40;;
9467;SDS011;4772;52.382;9.752;2023-02-28T05:30:04;12.13;;;6.00;;
9467;SDS011;4772;52.382;9.752;2023-02-28T05:32:31;7.43;;;5.50;;
9467;SDS011;4772;52.382;9.752;2023-02-28T05:34:57;7.93;;;5.53;;
9467;SDS011;4772;52.382;9.752;2023-02-28T05:37:23;7.53;;;5.50;;
9467;SDS011;4772;52.382;9.752;2023-02-28T05:39:49;7.67;;;4.87;;
9467;SDS011;4772;52.382;9.752;2023-02-28T05:42:14;6.77;;;5.20;;
9467;SDS011;4772;52.382;9.752;2023-02-28T05:44:40;9.40;;;5.17;;
9467;SDS011;4772;52.382;9.752;2023-02-28T05:47:07;7.60;;;5.20;;
9467;SDS011;4772;52.382;9.752;2023-02-28T05:49:33;12.83;;;5.70;;
9467;SDS011;4772;52.382;9.752;2023-02-28T05:51:59;9.23;;;5.63;;
9467;SDS011;4772;52.382;9.752;2023-02-28T05:54:25;11.90;;;5.40;;
9467;SDS011;4772;52.382;9.752;2023-02-28T05:56:51;8.93;;;5.87;;
9467;SDS011;4772;52.382;9.752;2023-02-28T05:59:17;10.73;;;6.00;;
9467;SDS011;4772;52.382;9.752;2023-02-28T06:01:44;7.40;;;5.97;;
9467;SDS011;4772;52.382;9.752;2023-02-28T06:04:13;7.57;;;5.77;;
9467;SDS011;4772;52.382;9.752;2023-02-28T06:06:42;10.90;;;6.37;;
9467;SDS011;4772;52.382;9.752;2023-02-28T06:09:08;12.70;;;7.27;;
9467;SDS011;4772;52.382;9.752;2023-02-28T06:11:34;24.43;;;12.53;;
9467;SDS011;4772;52.382;9.752;2023-02-28T06:14:00;10.53;;;6.20;;
9467;SDS011;4772;52.382;9.752;2023-02-28T06:16:27;12.07;;;6.43;;
9467;SDS011;4772;52.382;9.752;2023-02-28T06:18:54;12.60;;;7.03;;
9467;SDS011;4772;52.382;9.752;2023-02-28T06:21:21;13.57;;;5.83;;
9467;SDS011;4772;52.382;9.752;2023-02-28T06:23:47;14.53;;;6.10;;
9467;SDS011;4772;52.382;9.752;2023-02-28T06:26:13;13.13;;;6.00;;
9467;SDS011;4772;52.382;9.752;2023-02-28T06:28:39;11.40;;;5.83;;
9467;SDS011;4772;52.382;9.752;2023-02-28T06:31:09;11.47;;;5.87;;
9467;SDS011;4772;52.382;9.752;2023-02-28T06:33:35;10.30;;;5.93;;
9467;SDS011;4772;52.382;9.752;2023-02-28T06:36:02;10.67;;;6.27;;
9467;SDS011;4772;52.382;9.752;2023-02-28T06:38:28;13.03;;;6.47;;
9467;SDS011;4772;52.382;9.752;2023-02-28T06:40:54;14.60;;;6.70;;
9467;SDS011;4772;52.382;9.752;2023-02-28T06:43:20;12.00;;;6.87;;
9467;SDS011;4772;52.382;9.752;2023-02-28T06:45:46;10.60;;;6.13;;
9467;SDS011;4772;52.382;9.752;2023-02-28T06:48:12;11.67;;;6.03;;
9467;SDS011;4772;52.382;9.752;2023-02-28T06:50:38;21.10;;;7.23;;
9467;SDS011;4772;52.382;9.752;2023-02-28T06:53:04;13.97;;;6.20;;
9467;SDS011;4772;52.382;9.752;2023-02-28T06:55:30;13.07;;;6.27;;
9467;SDS011;4772;52.382;9.752;2023-02-28T06:57:56;12.80;;;6.03;;
9467;SDS011;4772;52.382;9.752;2023-02-28T07:00:22;13.87;;;5.97;;
9467;SDS011;4772;52.382;9.752;2023-02-28T07:02:49;8.13;;;5.97;;
9467;SDS011;4772;52.382;9.752;2023-02-28T07:05:15;11.50;;;6.23;;
9467;SDS011;4772;52.382;9.752;2023-02-28T07:07:41;33.87;;;7.87;;
9467;SDS011;4772;52.382;9.752;2023-02-28T07:10:10;42.63;;;9.48;;
9467;SDS011;4772;52.382;9.752;2023-02-28T07:12:37;52.13;;;9.73;;
9467;SDS011;4772;52.382;9.752;2023-02-28T07:15:04;24.37;;;7.03;;
9467;SDS011;4772;52.382;9.752;2023-02-28T07:17:31;9.83;;;5.87;;
9467;SDS011;4772;52.382;9.752;2023-02-28T07:19:57;10.13;;;5.40;;
9467;SDS011;4772;52.382;9.752;2023-02-28T07:22:23;9.73;;;4.83;;
9467;SDS011;4772;52.382;9.752;2023-02-28T07:24:49;10.37;;;4.70;;
9467;SDS011;4772;52.382;9.752;2023-02-28T07:27:16;8.00;;;4.90;;
9467;SDS011;4772;52.382;9.752;2023-02-28T07:29:49;12.23;;;5.43;;
9467;SDS011;4772;52.382;9.752;2023-02-28T07:32:15;8.47;;;5.03;;
9467;SDS011;4772;52.382;9.752;2023-02-28T07:34:41;6.57;;;4.63;;
9467;SDS011;4772;52.382;9.752;2023-02-28T07:37:07;7.90;;;4.80;;
9467;SDS011;4772;52.382;9.752;2023-02-28T07:39:33;9.83;;;5.13;;
9467;SDS011;4772;52.382;9.752;2023-02-28T07:41:59;8.47;;;5.33;;
9467;SDS011;4772;52.382;9.752;2023-02-28T07:44:28;7.73;;;4.73;;
9467;SDS011;4772;52.382;9.752;2023-02-28T07:46:54;8.13;;;5.13;;
9467;SDS011;4772;52.382;9.752;2023-02-28T07:49:20;9.73;;;5.77;;
9467;SDS011;4772;52.382;9.752;2023-02-28T07:51:46;8.00;;;4.93;;
9467;SDS011;4772;52.382;9.752;2023-02-28T07:54:12;7.37;;;5.47;;
9467;SDS011;4772;52.382;9.752;2023-02-28T07:56:38;9.27;;;5.53;;
9467;SDS011;4772;52.382;9.752;2023-02-28T07:59:04;9.63;;;6.00;;
9467;SDS011;4772;52.382;9.752;2023-02-28T08:01:30;8.77;;;5.10;;
9467;SDS011;4772;52.382;9.752;2023-02-28T08:03:56;8.50;;;5.23;;
9467;SDS011;4772;52.382;9.752;2023-02-28T08:06:23;6.33;;;4.27;;
9467;SDS011;4772;52.382;9.752;2023-02-28T08:08:49;10.00;;;4.47;;
9467;SDS011;4772;52.382;9.752;2023-02-28T08:11:16;8.33;;;4.43;;
9467;SDS011;4772;52.382;9.752;2023-02-28T08:13:43;5.70;;;4.07;;
9467;SDS011;4772;52.382;9.752;2023-02-28T08:16:09;5.20;;;4.27;;
9467;SDS011;4772;52.382;9.752;2023-02-28T08:18:35;7.80;;;4.10;;
9467;SDS011;4772;52.382;9.752;2023-02-28T08:21:07;7.40;;;4.07;;
9467;SDS011;4772;52.382;9.752;2023-02-28T08:23:33;6.73;;;4.27;;
9467;SDS011;4772;52.382;9.752;2023-02-28T08:26:00;4.67;;;3.80;;
9467;SDS011;4772;52.382;9.752;2023-02-28T08:28:26;5.87;;;3.90;;
9467;SDS011;4772;52.382;9.752;2023-02-28T08:30:52;6.53;;;4.63;;
9467;SDS011;4772;52.382;9.752;2023-02-28T08:33:18;7.27;;;4.07;;
9467;SDS011;4772;52.382;9.752;2023-02-28T08:35:44;4.87;;;4.03;;
9467;SDS011;4772;52.382;9.752;2023-02-28T08:38:10;5.17;;;4.67;;
9467;SDS011;4772;52.382;9.752;2023-02-28T08:40:36;5.30;;;3.70;;
9467;SDS011;4772;52.382;9.752;2023-02-28T08:43:02;4.37;;;3.80;;
9467;SDS011;4772;52.382;9.752;2023-02-28T08:45:28;4.80;;;3.20;;
9467;SDS011;4772;52.382;9.752;2023-02-28T08:47:55;6.27;;;3.60;;
9467;SDS011;4772;52.382;9.752;2023-02-28T08:50:21;5.43;;;3.63;;
9467;SDS011;4772;52.382;9.752;2023-02-28T08:52:47;4.40;;;3.40;;
9467;SDS011;4772;52.382;9.752;2023-02-28T08:55:13;4.73;;;3.60;;
9467;SDS011;4772;52.382;9.752;2023-02-28T08:57:39;5.80;;;3.67;;
9467;SDS011;4772;52.382;9.752;2023-02-28T09:00:05;5.27;;;3.70;;
9467;SDS011;4772;52.382;9.752;2023-02-28T09:02:32;4.43;;;2.60;;
9467;SDS011;4772;52.382;9.752;2023-02-28T09:04:58;3.93;;;2.60;;
9467;SDS011;4772;52.382;9.752;2023-02-28T09:07:24;2.77;;;2.20;;
9467;SDS011;4772;52.382;9.752;2023-02-28T09:09:50;4.20;;;2.30;;
9467;SDS011;4772;52.382;9.752;2023-02-28T09:12:23;2.80;;;2.40;;
9467;SDS011;4772;52.382;9.752;2023-02-28T09:14:49;3.00;;;2.60;;
9467;SDS011;4772;52.382;9.752;2023-02-28T09:17:16;3.47;;;2.40;;
9467;SDS011;4772;52.382;9.752;2023-02-28T09:19:42;5.80;;;2.60;;
9467;SDS011;4772;52.382;9.752;2023-02-28T09:22:08;7.00;;;2.40;;
9467;SDS011;4772;52.382;9.752;2023-02-28T09:24:35;5.97;;;2.30;;
9467;SDS011;4772;52.382;9.752;2023-02-28T09:27:04;4.57;;;2.40;;
9467;SDS011;4772;52.382;9.752;2023-02-28T09:29:33;6.00;;;2.20;;
9467;SDS011;4772;52.382;9.752;2023-02-28T09:31:59;2.90;;;2.33;;
9467;SDS011;4772;52.382;9.752;2023-02-28T09:34:26;7.00;;;2.70;;
9467;SDS011;4772;52.382;9.752;2023-02-28T09:36:52;5.63;;;2.80;;
9467;SDS011;4772;52.382;9.752;2023-02-28T09:39:20;10.00;;;2.90;;
9467;SDS011;4772;52.382;9.752;2023-02-28T09:41:47;2.93;;;1.97;;
9467;SDS011;4772;52.382;9.752;2023-02-28T09:44:31;3.80;;;2.10;;
9467;SDS011;4772;52.382;9.752;2023-02-28T09:47:00;2.80;;;1.67;;
9467;SDS011;4772;52.382;9.752;2023-02-28T09:49:36;6.30;;;1.80;;
9467;SDS011;4772;52.382;9.752;2023-02-28T09:52:04;3.33;;;1.90;;
9467;SDS011;4772;52.382;9.752;2023-02-28T09:54:34;6.70;;;2.07;;
9467;SDS011;4772;52.382;9.752;2023-02-28T09:57:08;7.40;;;2.03;;
9467;SDS011;4772;52.382;9.752;2023-02-28T10:06:58;2.73;;;1.73;;
9467;SDS011;4772;52.382;9.752;2023-02-28T10:09:28;5.07;;;1.73;;
9467;SDS011;4772;52.382;9.752;2023-02-28T10:12:02;1.93;;;1.73;;
9467;SDS011;4772;52.382;9.752;2023-02-28T10:14:29;2.93;;;1.90;;
9467;SDS011;4772;52.382;9.752;2023-02-28T10:16:58;10.83;;;2.63;;
9467;SDS011;4772;52.382;9.752;2023-02-28T10:19:45;2.30;;;1.63;;
9467;SDS011;4772;52.382;9.752;2023-02-28T10:22:29;2.50;;;1.80;;
9467;SDS011;4772;52.382;9.752;2023-02-28T10:25:00;3.07;;;2.20;;
9467;SDS011;4772;52.382;9.752;2023-02-28T10:27:31;2.23;;;1.63;;
9467;SDS011;4772;52.382;9.752;2023-02-28T10:30:01;4.97;;;2.20;;
9467;SDS011;4772;52.382;9.752;2023-02-28T10:32:28;2.33;;;1.80;;
9467;SDS011;4772;52.382;9.752;2023-02-28T10:35:01;2.43;;;2.07;;
9467;SDS011;4772;52.382;9.752;2023-02-28T10:37:30;1.60;;;1.50;;
9467;SDS011;4772;52.382;9.752;2023-02-28T10:39:57;3.23;;;1.60;;
9467;SDS011;4772;52.382;9.752;2023-02-28T10:42:24;2.93;;;1.67;;
9467;SDS011;4772;52.382;9.752;2023-02-28T10:47:59;3.10;;;1.40;;
9467;SDS011;4772;52.382;9.752;2023-02-28T10:53:23;1.80;;;1.53;;
9467;SDS011;4772;52.382;9.752;2023-02-28T10:56:04;1.90;;;1.70;;
9467;SDS011;4772;52.382;9.752;2023-02-28T11:01:37;3.63;;;2.07;;
9467;SDS011;4772;52.382;9.752;2023-02-28T11:04:03;2.07;;;1.67;;
9467;SDS011;4772;52.382;9.752;2023-02-28T11:06:30;2.73;;;1.90;;
9467;SDS011;4772;52.382;9.752;2023-02-28T11:08:58;2.93;;;1.90;;
9467;SDS011;4772;52.382;9.752;2023-02-28T11:11:26;5.53;;;2.03;;
9467;SDS011;4772;52.382;9.752;2023-02-28T11:13:55;4.63;;;2.40;;
9467;SDS011;4772;52.382;9.752;2023-02-28T11:16:22;2.47;;;1.50;;
9467;SDS011;4772;52.382;9.752;2023-02-28T11:18:57;3.47;;;1.70;;
9467;SDS011;4772;52.382;9.752;2023-02-28T11:21:26;4.60;;;1.40;;
9467;SDS011;4772;52.382;9.752;2023-02-28T11:23:54;1.00;;;0.90;;
9467;SDS011;4772;52.382;9.752;2023-02-28T11:26:40;1.57;;;1.10;;
9467;SDS011;4772;52.382;9.752;2023-02-28T11:29:17;1.07;;;1.00;;
9467;SDS011;4772;52.382;9.752;2023-02-28T11:31:54;3.33;;;1.20;;
9467;SDS011;4772;52.382;9.752;2023-02-28T11:34:26;1.97;;;1.20;;
9467;SDS011;4772;52.382;9.752;2023-02-28T11:36:54;3.00;;;1.20;;
9467;SDS011;4772;52.382;9.752;2023-02-28T11:39:21;4.70;;;1.63;;
9467;SDS011;4772;52.382;9.752;2023-02-28T11:41:57;2.57;;;1.50;;
9467;SDS011;4772;52.382;9.752;2023-02-28T11:47:00;2.73;;;1.70;;
9467;SDS011;4772;52.382;9.752;2023-02-28T11:59:57;6.27;;;1.90;;
9467;SDS011;4772;52.382;9.752;2023-02-28T12:04:56;3.93;;;2.20;;
9467;SDS011;4772;52.382;9.752;2023-02-28T12:07:37;4.30;;;2.27;;
9467;SDS011;4772;52.382;9.752;2023-02-28T12:20:25;3.77;;;1.60;;
9467;SDS011;4772;52.382;9.752;2023-02-28T12:25:24;2.07;;;1.73;;
9467;SDS011;4772;52.382;9.752;2023-02-28T12:27:56;3.03;;;1.90;;
9467;SDS011;4772;52.382;9.752;2023-02-28T12:30:27;1.73;;;1.60;;
9467;SDS011;4772;52.382;9.752;2023-02-28T12:35:33;1.73;;;1.60;;
9467;SDS011;4772;52.382;9.752;2023-02-28T12:38:14;3.80;;;1.90;;
9467;SDS011;4772;52.382;9.752;2023-02-28T12:40:44;4.37;;;1.90;;
9467;SDS011;4772;52.382;9.752;2023-02-28T12:43:11;2.63;;;1.77;;
9467;SDS011;4772;52.382;9.752;2023-02-28T12:48:08;3.27;;;1.87;;
9467;SDS011;4772;52.382;9.752;2023-02-28T12:50:38;2.20;;;1.87;;
9467;SDS011;4772;52.382;9.752;2023-02-28T12:56:06;3.97;;;2.20;;
9467;SDS011;4772;52.382;9.752;2023-02-28T13:08:22;3.70;;;2.27;;
9467;SDS011;4772;52.382;9.752;2023-02-28T13:10:52;3.43;;;2.37;;
9467;SDS011;4772;52.382;9.752;2023-02-28T13:13:22;3.37;;;2.07;;
9467;SDS011;4772;52.382;9.752;2023-02-28T13:18:32;3.17;;;2.23;;
9467;SDS011;4772;52.382;9.752;2023-02-28T13:20:58;6.33;;;2.80;;
9467;SDS011;4772;52.382;9.752;2023-02-28T13:23:36;3.00;;;2.53;;
9467;SDS011;4772;52.382;9.752;2023-02-28T13:26:04;2.60;;;2.40;;
9467;SDS011;4772;52.382;9.752;2023-02-28T13:28:57;3.70;;;2.67;;
9467;SDS011;4772;52.382;9.752;2023-02-28T13:31:22;3.00;;;2.30;;
9467;SDS011;4772;52.382;9.752;2023-02-28T13:44:09;2.47;;;2.20;;
9467;SDS011;4772;52.382;9.752;2023-02-28T14:02:01;3.23;;;2.20;;
9467;SDS011;4772;52.382;9.752;2023-02-28T14:07:03;3.00;;;2.40;;
9467;SDS011;4772;52.382;9.752;2023-02-28T14:11:56;3.90;;;2.60;;
9467;SDS011;4772;52.382;9.752;2023-02-28T14:17:05;2.97;;;2.23;;
9467;SDS011;4772;52.382;9.752;2023-02-28T14:19:32;3.50;;;2.70;;
9467;SDS011;4772;52.382;9.752;2023-02-28T14:22:12;2.90;;;2.50;;
9467;SDS011;4772;52.382;9.752;2023-02-28T14:24:51;4.27;;;2.70;;
9467;SDS011;4772;52.382;9.752;2023-02-28T14:27:28;4.60;;;2.53;;
9467;SDS011;4772;52.382;9.752;2023-02-28T14:32:51;3.17;;;2.37;;
9467;SDS011;4772;52.382;9.752;2023-02-28T14:35:35;3.77;;;2.40;;
9467;SDS011;4772;52.382;9.752;2023-02-28T14:38:05;3.80;;;2.23;;
9467;SDS011;4772;52.382;9.752;2023-02-28T14:40:33;3.60;;;2.37;;
9467;SDS011;4772;52.382;9.752;2023-02-28T14:43:00;3.30;;;2.20;;
9467;SDS011;4772;52.382;9.752;2023-02-28T14:45:28;3.90;;;1.90;;
9467;SDS011;4772;52.382;9.752;2023-02-28T14:47:55;3.70;;;2.00;;
9467;SDS011;4772;52.382;9.752;2023-02-28T14:50:24;2.70;;;2.47;;
9467;SDS011;4772;52.382;9.752;2023-02-28T14:52:52;4.00;;;2.40;;
9467;SDS011;4772;52.382;9.752;2023-02-28T14:55:20;3.10;;;2.20;;
9467;SDS011;4772;52.382;9.752;2023-02-28T15:00:25;3.33;;;2.20;;
9467;SDS011;4772;52.382;9.752;2023-02-28T15:02:51;3.40;;;2.03;;
9467;SDS011;4772;52.382;9.752;2023-02-28T15:07:44;3.20;;;2.30;;
9467;SDS011;4772;52.382;9.752;2023-02-28T15:10:13;3.10;;;1.90;;
9467;SDS011;4772;52.382;9.752;2023-02-28T15:12:41;4.30;;;2.30;;
9467;SDS011;4772;52.382;9.752;2023-02-28T15:15:14;4.07;;;2.67;;
9467;SDS011;4772;52.382;9.752;2023-02-28T15:17:40;4.73;;;2.57;;
9467;SDS011;4772;52.382;9.752;2023-02-28T15:20:11;2.30;;;2.10;;
9467;SDS011;4772;52.382;9.752;2023-02-28T15:22:37;5.87;;;2.80;;
9467;SDS011;4772;52.382;9.752;2023-02-28T15:25:04;2.70;;;2.30;;
9467;SDS011;4772;52.382;9.752;2023-02-28T15:27:33;3.80;;;2.47;;
9467;SDS011;4772;52.382;9.752;2023-02-28T15:30:00;7.13;;;2.40;;
9467;SDS011;4772;52.382;9.752;2023-02-28T15:34:56;2.87;;;2.20;;
9467;SDS011;4772;52.382;9.752;2023-02-28T15:37:26;3.43;;;2.43;;
9467;SDS011;4772;52.382;9.752;2023-02-28T15:39:56;4.10;;;2.70;;
9467;SDS011;4772;52.382;9.752;2023-02-28T15:42:23;7.40;;;3.43;;
9467;SDS011;4772;52.382;9.752;2023-02-28T15:44:53;5.37;;;2.93;;
9467;SDS011;4772;52.382;9.752;2023-02-28T15:47:20;3.33;;;2.10;;
9467;SDS011;4772;52.382;9.752;2023-02-28T15:49:47;3.57;;;2.50;;
9467;SDS011;4772;52.382;9.752;2023-02-28T15:52:19;2.77;;;2.03;;
9467;SDS011;4772;52.382;9.752;2023-02-28T15:54:46;5.13;;;2.40;;
9467;SDS011;4772;52.382;9.752;2023-02-28T15:57:22;4.43;;;2.60;;
9467;SDS011;4772;52.382;9.752;2023-02-28T15:59:51;2.77;;;2.40;;
9467;SDS011;4772;52.382;9.752;2023-02-28T16:02:20;4.90;;;2.77;;
9467;SDS011;4772;52.382;9.752;2023-02-28T16:07:32;3.13;;;2.50;;
9467;SDS011;4772;52.382;9.752;2023-02-28T16:09:58;7.17;;;3.07;;
9467;SDS011;4772;52.382;9.752;2023-02-28T16:12:25;2.90;;;2.60;;
9467;SDS011;4772;52.382;9.752;2023-02-28T16:14:52;5.47;;;2.40;;
9467;SDS011;4772;52.382;9.752;2023-02-28T16:17:29;3.27;;;2.70;;
9467;SDS011;4772;52.382;9.752;2023-02-28T16:19:56;6.33;;;3.43;;
9467;SDS011;4772;52.382;9.752;2023-02-28T16:22:23;3.20;;;2.90;;
9467;SDS011;4772;52.382;9.752;2023-02-28T16:24:48;4.53;;;2.60;;
9467;SDS011;4772;52.382;9.752;2023-02-28T16:27:19;3.03;;;2.73;;
9467;SDS011;4772;52.382;9.752;2023-02-28T16:29:46;3.60;;;2.77;;
9467;SDS011;4772;52.382;9.752;2023-02-28T16:32:14;4.33;;;2.70;;
9467;SDS011;4772;52.382;9.752;2023-02-28T16:34:40;3.90;;;2.60;;
9467;SDS011;4772;52.382;9.752;2023-02-28T16:37:11;3.93;;;3.10;;
9467;SDS011;4772;52.382;9.752;2023-02-28T16:39:37;4.37;;;2.97;;
9467;SDS011;4772;52.382;9.752;2023-02-28T16:42:03;5.63;;;3.60;;
9467;SDS011;4772;52.382;9.752;2023-02-28T16:44:32;4.40;;;3.77;;
9467;SDS011;4772;52.382;9.752;2023-02-28T16:47:02;4.17;;;2.93;;
9467;SDS011;4772;52.382;9.752;2023-02-28T16:49:29;4.37;;;3.00;;
9467;SDS011;4772;52.382;9.752;2023-02-28T16:51:55;5.63;;;3.63;;
9467;SDS011;4772;52.382;9.752;2023-02-28T16:54:21;6.77;;;3.83;;
9467;SDS011;4772;52.382;9.752;2023-02-28T16:56:48;5.97;;;4.00;;
9467;SDS011;4772;52.382;9.752;2023-02-28T16:59:15;8.20;;;3.90;;
9467;SDS011;4772;52.382;9.752;2023-02-28T17:01:43;5.77;;;3.70;;
9467;SDS011;4772;52.382;9.752;2023-02-28T17:04:10;4.20;;;3.40;;
9467;SDS011;4772;52.382;9.752;2023-02-28T17:06:37;4.90;;;3.10;;
9467;SDS011;4772;52.382;9.752;2023-02-28T17:09:03;4.60;;;3.20;;
9467;SDS011;4772;52.382;9.752;2023-02-28T17:11:29;5.97;;;3.60;;
9467;SDS011;4772;52.382;9.752;2023-02-28T17:13:55;3.90;;;3.27;;
9467;SDS011;4772;52.382;9.752;2023-02-28T17:16:25;6.50;;;3.63;;
9467;SDS011;4772;52.382;9.752;2023-02-28T17:18:52;5.40;;;3.20;;
9467;SDS011;4772;52.382;9.752;2023-02-28T17:21:18;4.07;;;3.17;;
9467;SDS011;4772;52.382;9.752;2023-02-28T17:23:44;4.63;;;3.77;;
9467;SDS011;4772;52.382;9.752;2023-02-28T17:26:14;6.50;;;3.73;;
9467;SDS011;4772;52.382;9.752;2023-02-28T17:28:42;9.47;;;4.10;;
9467;SDS011;4772;52.382;9.752;2023-02-28T17:31:08;6.60;;;4.03;;
9467;SDS011;4772;52.382;9.752;2023-02-28T17:33:35;7.13;;;4.80;;
9467;SDS011;4772;52.382;9.752;2023-02-28T17:36:01;7.70;;;4.03;;
9467;SDS011;4772;52.382;9.752;2023-02-28T17:38:27;7.87;;;3.63;;
9467;SDS011;4772;52.382;9.752;2023-02-28T17:40:53;7.17;;;3.50;;
9467;SDS011;4772;52.382;9.752;2023-02-28T17:43:22;6.80;;;3.80;;